• Join FlightAware (Why Join?)
  • Login
  • US Flag 
Rudolph Flight #1: Arrived! 
08:06PM EST


 

Airport Tracker/Info


-or-


 

Live Flight TrackerFlight Track Log ✈ N838TH ✈ 15-Apr-2012 ✈ KDFW - KBFI

Flight Track Log - Related Links

Times and Time Zones

All times are in EDT time to prevent confusion due to time zone crossing. See the N838TH flight status page for this flight to view local times or setup timezone preferences in your user account.

Time Position Orientation Groundspeed Altitude Reporting Facility
EDT Latitude Longitude Course Direction KTS MPH feet Rate Location/Type
06:28PM 32.8772 -97.0528 183° South 161 185 1,800  Level FAA TRACON SMA TRACON (SMA)
06:28PM 32.8408 -97.0553 234° Southwest 194 223 3,500 2,760 Climbing FAA TRACON SMA TRACON (SMA)
06:29PM 32.8242 -97.0831 288° West 198 228 5,600 2,880 Climbing FAA TRACON SMA TRACON (SMA)
06:30PM 32.8358 -97.1269 289° West 205 236 7,400 2,460 Climbing FAA TRACON SMA TRACON (SMA)
06:30PM 32.8492 -97.1725 292° West 239 275 8,900 2,640 Climbing FAA TRACON SMA TRACON (SMA)
06:31PM 32.8694 -97.2311 297° West 284 327 10,900 3,480 Climbing FAA TRACON SMA TRACON (SMA)
06:32PM 32.8961 -97.2922 297° West 305 351 13,600 3,960 Climbing FAA TRACON SMA TRACON (SMA)
06:32PM 32.9200 -97.3481 298° West 309 356 16,200 3,600 Climbing FAA TRACON SMA TRACON (SMA)
06:33PM 32.9486 -97.4125 297° West 321 369 18,400 3,060 Climbing FAA TRACON SMA TRACON (SMA)
06:34PM 32.9789 -97.4828 298° West 349 402 20,400 3,240 Climbing FAA TRACON SMA TRACON (SMA)
06:34PM 33.0106 -97.5533 298° West 347 399 22,900 3,060 Climbing FAA TRACON SMA TRACON (SMA)
06:35PM 33.0383 -97.6150 298° West 344 396 24,500 2,340 Climbing FAA TRACON SMA TRACON (SMA)
06:36PM 33.0708 -97.6872 296° West 357 411 26,000 2,160 Climbing FAA TRACON SMA TRACON (SMA)
06:36PM 33.0978 -97.7536 292° West 363 418 27,400 2,460 Climbing FAA TRACON SMA TRACON (SMA)
06:37PM 33.1233 -97.8292 290° West 353 406 29,300 2,400 Climbing FAA TRACON SMA TRACON (SMA)
06:38PM 33.1464 -97.9047 290° West 349 402 30,800 1,980 Climbing FAA TRACON SMA TRACON (SMA)
06:38PM 33.1700 -97.9811 293° West 356 410 32,000 1,620 Climbing FAA TRACON SMA TRACON (SMA)
06:39PM 33.1936 -98.0489 291° West 359 413 32,900 1,320 Climbing FAA TRACON SMA TRACON (SMA)
06:40PM 33.2194 -98.1275 287° West 368 423 33,800 1,200 Climbing FAA TRACON SMA TRACON (SMA)
06:41PM 33.2522 -98.2531 303° West 371 427 35,200 1,140 Climbing Fort Worth Center
06:42PM 33.3100 -98.3581 315° West 366 421 36,400 1,020 Climbing Fort Worth Center
06:43PM 33.3925 -98.4558 315° West 405 466 37,300 780 Climbing Fort Worth Center
06:44PM 33.4772 -98.5592 313° West 410 472 38,000 840 Climbing Fort Worth Center
06:45PM 33.5681 -98.6750 314° West 432 497 39,000 900 Climbing Fort Worth Center
06:46PM 33.6503 -98.7783 314° West 438 504 39,900 720 Climbing Fort Worth Center
06:47PM 33.7306 -98.8794 314° West 426 490 40,500 600 Climbing Fort Worth Center
06:48PM 33.8128 -98.9833 314° West 421 484 41,100 360 Climbing Fort Worth Center
06:49PM 33.8950 -99.0875 316° Northwest 427 491 41,300 300 Climbing Fort Worth Center
06:50PM 33.9708 -99.1767 314° West 422 486 41,700 600 Climbing Fort Worth Center
06:51PM 34.0550 -99.2811 313° West 422 486 42,600 600 Climbing Fort Worth Center
06:52PM 34.1369 -99.3858 314° West 427 491 43,000 300 Climbing Fort Worth Center
06:53PM 34.2208 -99.4906 314° West 427 491 43,200 300 Climbing Fort Worth Center
06:54PM 34.3003 -99.5906 313° West 422 486 43,700 420 Climbing Fort Worth Center
06:55PM 34.3819 -99.6983 314° West 422 486 44,100 240 Climbing Fort Worth Center
06:57PM 34.5439 -99.9047 313° West 421 484 44,500 120 Climbing Albuquerque Center
06:58PM 34.6264 -100.0106 313° West 426 490 44,600 120 Climbing Albuquerque Center
06:59PM 34.7078 -100.1167 313° West 428 493 44,800 120 Climbing Albuquerque Center
07:00PM 34.7900 -100.2225 313° West 428 493 44,900 60 Climbing Albuquerque Center
07:01PM 34.8714 -100.3275 313° West 427 491 45,000 120 Climbing Albuquerque Center
07:02PM 34.9592 -100.4428 313° West 428 493 45,200 120 Climbing Albuquerque Center
07:03PM 35.0406 -100.5483 313° West 428 493 45,300 120 Climbing Albuquerque Center
07:04PM 35.1214 -100.6544 313° West 427 491 45,500 180 Climbing Albuquerque Center
07:05PM 35.2181 -100.7819 313° West 427 491 45,700 120 Climbing Albuquerque Center
07:06PM 35.2975 -100.8861 313° West 424 488 45,800  Climbing Albuquerque Center
07:07PM 35.3764 -100.9908 312° West 421 484 45,800  Level Albuquerque Center
07:08PM 35.4544 -101.0956 313° West 420 483 45,800  Level Albuquerque Center
07:09PM 35.5333 -101.2008 313° West 420 483 45,800  Level Albuquerque Center
07:10PM 35.6278 -101.3269 312° West 421 484 45,800  Level Albuquerque Center
07:11PM 35.7072 -101.4344 312° West 423 487 45,800  Level Albuquerque Center
07:12PM 35.7853 -101.5422 313° West 425 489 45,900 60 Climbing Albuquerque Center
07:13PM 35.8650 -101.6467 312° West 423 487 46,000 60 Climbing Albuquerque Center
07:14PM 35.9439 -101.7536 312° West 424 488 46,100 60 Climbing Albuquerque Center
07:15PM 36.0208 -101.8597 312° West 420 483 46,200 60 Climbing Albuquerque Center
07:16PM 36.1136 -101.9856 312° West 415 478 46,300  Climbing Albuquerque Center
07:17PM 36.1908 -102.0914 312° West 416 479 46,300  Level Albuquerque Center
07:18PM 36.2678 -102.1989 312° West 416 479 46,300  Level Albuquerque Center
07:20PM 36.3444 -102.3044 312° West 415 478 46,300  Level Albuquerque Center
07:21PM 36.4222 -102.4106 312° West 415 478 46,300  Level Albuquerque Center
07:22PM 36.4992 -102.5175 312° West 416 479 46,300  Level Albuquerque Center
07:23PM 36.5919 -102.6469 311° West 417 480 46,300  Level Albuquerque Center
07:24PM 36.6697 -102.7569 312° West 421 484 46,300  Level Albuquerque Center
07:25PM 36.7436 -102.8600 311° West 418 481 46,300  Level Albuquerque Center
07:26PM 36.8292 -102.9811 312° West 417 480 46,300  Level Albuquerque Center
07:27PM 36.9033 -103.0853 311° West 419 482 46,300  Level Albuquerque Center
07:28PM 36.9894 -103.2078 311° West 419 482 46,300  Level Albuquerque Center
07:29PM 37.0628 -103.3119 312° West 418 481 46,300 -60 Level Albuquerque Center
07:30PM 37.1367 -103.4167 312° West 419 482 46,200  Descending Albuquerque Center
07:31PM 37.2108 -103.5206 311° West 420 483 46,300 60 Climbing Denver Center
07:32PM 37.2842 -103.6258 311° West 419 482 46,400 60 Climbing Denver Center
07:33PM 37.3700 -103.7486 311° West 418 481 46,500 60 Climbing Denver Center
07:34PM 37.4425 -103.8525 311° West 415 478 46,600 60 Climbing Denver Center
07:35PM 37.5217 -103.9683 311° West 411 473 46,700 60 Climbing Denver Center
07:36PM 37.5914 -104.0703 310° West 411 473 46,800 60 Climbing Denver Center
07:37PM 37.6728 -104.1908 311° West 407 468 46,900  Climbing Denver Center
07:38PM 37.7550 -104.3103 311° West 405 466 46,900  Level Denver Center
07:39PM 37.8253 -104.4125 311° West 403 464 46,900  Level Denver Center
07:40PM 37.9061 -104.5314 311° West 400 460 46,900  Level Denver Center
07:41PM 37.9753 -104.6339 310° West 400 460 46,900  Level Denver Center
07:42PM 38.0553 -104.7533 311° West 398 458 46,900  Level Denver Center
07:43PM 38.1236 -104.8544 310° West 395 455 46,900 -180 Level Denver Center
07:44PM 38.1922 -104.9578 311° West 397 457 46,600 -240 Descending Denver Center
07:45PM 38.2739 -105.0794 310° West 404 465 46,400 -120 Descending Denver Center
07:46PM 38.3550 -105.2025 310° West 409 471 46,400  Level Denver Center
07:47PM 38.4297 -105.3158 310° West 412 474 46,400  Level Denver Center
07:48PM 38.5039 -105.4289 311° West 411 473 46,400  Level Denver Center
07:49PM 38.5792 -105.5417 310° West 412 474 46,400  Level Denver Center
07:50PM 38.6539 -105.6558 310° West 413 475 46,400  Level Denver Center
07:51PM 38.7281 -105.7711 310° West 414 476 46,400  Level Denver Center
07:52PM 38.8028 -105.8856 310° West 414 476 46,400  Level Denver Center
07:53PM 38.8767 -106.0003 310° West 414 476 46,400  Level Denver Center
07:55PM 38.9653 -106.1361 309° West 418 481 46,400  Level Denver Center
07:56PM 39.0336 -106.2433 310° West 417 480 46,500 60 Climbing Denver Center
07:57PM 39.1158 -106.3700 310° West 414 476 46,600 60 Climbing Denver Center
07:58PM 39.1853 -106.4781 309° West 410 472 46,700 60 Climbing Denver Center
07:59PM 39.2658 -106.6047 309° West 408 470 46,800 60 Climbing Denver Center
08:00PM 39.3328 -106.7111 309° West 403 464 46,900  Climbing Denver Center
08:01PM 39.4114 -106.8369 309° West 402 463 46,900  Level Denver Center
08:02PM 39.4772 -106.9439 309° West 399 459 46,900  Level Denver Center
08:03PM 39.5569 -107.0697 309° West 403 464 46,900  Level Denver Center
08:04PM 39.6244 -107.1778 309° West 404 465 46,900  Level Denver Center
08:05PM 39.7036 -107.3047 309° West 405 466 46,900  Level Denver Center
08:06PM 39.7711 -107.4139 309° West 406 467 46,900  Level Denver Center
08:07PM 39.8506 -107.5411 309° West 406 467 46,900  Level Denver Center
08:08PM 39.9181 -107.6511 308° West 407 468 46,900  Level Denver Center
08:09PM 39.9969 -107.7811 309° West 409 471 46,900  Level Denver Center
08:10PM 40.0653 -107.8925 308° West 411 473 46,900  Level Denver Center
08:11PM 40.1442 -108.0231 309° West 411 473 46,900  Level Denver Center
08:12PM 40.2122 -108.1347 308° West 412 474 46,900  Level Denver Center
08:13PM 40.2919 -108.2667 308° West 414 476 46,900  Level Denver Center
08:14PM 40.3597 -108.3806 307° West 416 479 46,900  Level Denver Center
08:15PM 40.4383 -108.5158 308° West 417 480 46,900  Level Denver Center
08:16PM 40.5058 -108.6300 309° West 417 480 46,900  Level Denver Center
08:17PM 40.5872 -108.7622 308° West 417 480 46,900  Level Denver Center
08:18PM 40.6550 -108.8778 308° West 417 480 46,900  Level Denver Center
08:19PM 40.7353 -109.0144 307° West 418 481 46,900  Level Denver Center
08:20PM 40.8028 -109.1314 308° West 418 481 46,900  Level Denver Center
08:21PM 40.8836 -109.2678 307° West 420 483 46,900  Level Denver Center
08:23PM 40.9511 -109.3856 308° West 419 482 47,000  Climbing Salt Lake Center
08:24PM 41.0300 -109.5211 308° West 415 478 47,000  Level Salt Lake Center
08:25PM 41.0967 -109.6364 307° West 412 474 47,000  Level Salt Lake Center
08:26PM 41.1647 -109.7547 307° West 416 479 47,000  Level Salt Lake Center
08:27PM 41.2417 -109.8908 307° West 413 475 47,000  Level Salt Lake Center
08:28PM 41.3092 -110.0086 307° West 415 478 47,000  Level Salt Lake Center
08:29PM 41.3875 -110.1464 307° West 417 480 47,000  Level Salt Lake Center
08:30PM 41.4547 -110.2653 307° West 418 481 47,000  Level Salt Lake Center
08:31PM 41.5331 -110.4047 307° West 419 482 47,000  Level Salt Lake Center
08:32PM 41.6006 -110.5250 307° West 421 484 47,000  Level Salt Lake Center
08:33PM 41.6800 -110.6658 307° West 424 488 47,000  Level Salt Lake Center
08:34PM 41.7472 -110.7869 307° West 424 488 47,000  Level Salt Lake Center
08:35PM 41.8147 -110.9092 306° West 425 489 47,000  Level Salt Lake Center
08:36PM 41.8883 -111.0447 307° West 426 490 47,000  Level Salt Lake Center
08:37PM 41.9597 -111.1725 306° West 426 490 47,000  Level Salt Lake Center
08:38PM 42.0308 -111.3039 306° West 430 495 47,000  Level Salt Lake Center
08:39PM 42.1136 -111.4567 307° West 431 496 47,000  Level Salt Lake Center
08:40PM 42.1853 -111.5875 306° West 431 496 47,000  Level Salt Lake Center
08:41PM 42.2558 -111.7181 306° West 430 495 47,000  Level Salt Lake Center
08:42PM 42.3261 -111.8489 306° West 428 493 47,000  Level Salt Lake Center
08:43PM 42.3958 -111.9797 306° West 427 491 47,000  Level Salt Lake Center
08:44PM 42.4658 -112.1100 305° West 426 490 47,000  Level Salt Lake Center
08:45PM 42.5336 -112.2400 306° West 421 484 47,000  Level Salt Lake Center
08:46PM 42.6014 -112.3681 306° West 418 481 47,000  Level Salt Lake Center
08:47PM 42.6806 -112.5156 306° West 413 475 47,000  Level Salt Lake Center
08:48PM 42.7419 -112.6314 305° West 409 471 47,000  Level Salt Lake Center
08:49PM 42.8158 -112.7739 305° West 410 472 47,000  Level Salt Lake Center
08:50PM 42.8792 -112.8958 303° West 411 473 47,000  Level Salt Lake Center
08:51PM 42.9403 -113.0231 306° West 415 478 47,000  Level Salt Lake Center
08:52PM 43.0150 -113.1622 305° West 408 470 47,000  Level Salt Lake Center
08:53PM 43.0781 -113.2858 305° West 410 472 47,000  Level Salt Lake Center
08:54PM 43.1508 -113.4297 305° West 411 473 47,000  Level Salt Lake Center
08:56PM 43.2133 -113.5522 305° West 410 472 47,000  Level Salt Lake Center
08:57PM 43.2861 -113.6967 305° West 410 472 47,000  Level Salt Lake Center
08:58PM 43.3478 -113.8200 306° West 410 472 47,000  Level Salt Lake Center
08:59PM 43.4169 -113.9536 304° West 443 510 47,000  Level Salt Lake Center
09:00PM 43.4886 -114.0983 303° West 417 480 47,000  Level Salt Lake Center
09:01PM 43.5483 -114.2233 304° West 411 473 47,000  Level Salt Lake Center
09:02PM 43.6208 -114.3694 304° West 412 474 47,000  Level Salt Lake Center
09:03PM 43.6825 -114.4950 303° West 413 475 47,000  Level Salt Lake Center
09:04PM 43.7525 -114.6419 304° West 412 474 47,000  Level Salt Lake Center
09:05PM 43.8139 -114.7689 305° West 413 475 47,000  Level Salt Lake Center
09:06PM 43.8767 -114.8950 307° West 414 476 47,000  Level Salt Lake Center
09:07PM 43.9544 -115.0386 306° West 416 479 47,000  Level Salt Lake Center
09:08PM 44.0203 -115.1625 306° West 416 479 47,000  Level Salt Lake Center
09:09PM 44.0958 -115.3075 307° West 416 479 47,000  Level Salt Lake Center
09:10PM 44.1622 -115.4322 306° West 417 480 47,000  Level Salt Lake Center
09:11PM 44.2386 -115.5772 306° West 417 480 47,000  Level Salt Lake Center
09:12PM 44.3039 -115.7011 306° West 415 478 47,000  Level Salt Lake Center
09:13PM 44.3686 -115.8261 306° West 416 479 47,000  Level Salt Lake Center
09:14PM 44.4447 -115.9731 305° West 419 482 47,000  Level Salt Lake Center
09:15PM 44.5169 -116.1167 306° West 417 480 47,000  Level Salt Lake Center
09:16PM 44.5814 -116.2425 305° West 422 486 47,000  Level Salt Lake Center
09:17PM 44.6556 -116.3894 306° West 418 481 47,000  Level Salt Lake Center
09:18PM 44.7200 -116.5158 305° West 416 479 47,000  Level Salt Lake Center
09:19PM 44.7842 -116.6433 305° West 417 480 47,000  Level Salt Lake Center
09:20PM 44.8594 -116.7928 305° West 418 481 47,000  Level Salt Lake Center
09:21PM 44.9236 -116.9214 305° West 419 482 47,000  Level Salt Lake Center
09:22PM 44.9983 -117.0722 305° West 419 482 47,000  Level Salt Lake Center
09:23PM 45.0619 -117.2019 305° West 419 482 47,000  Level Salt Lake Center
09:24PM 45.1364 -117.3519 304° West 418 481 47,000  Level Salt Lake Center
09:25PM 45.1994 -117.4828 305° West 419 482 47,000  Level Salt Lake Center
09:26PM 45.2628 -117.6133 305° West 420 483 47,000  Level Salt Lake Center
09:27PM 45.3381 -117.7675 304° West 419 482 47,000  Level Salt Lake Center
09:28PM 45.4022 -117.9028 305° West 417 480 47,000  Level Salt Lake Center
09:29PM 45.4675 -118.0381 304° West 417 480 47,000  Level Salt Lake Center
09:30PM 45.5317 -118.1733 304° West 417 480 47,000  Level Salt Lake Center
09:31PM 45.5961 -118.3083 303° West 416 479 47,000  Level Salt Lake Center
09:32PM 45.6586 -118.4442 304° West 415 478 47,000  Level Salt Lake Center
09:34PM 45.7350 -118.6067 304° West 414 476 47,000  Level Salt Lake Center
09:35PM 45.7989 -118.7419 304° West 414 476 47,000  Level Salt Lake Center
09:36PM 45.8619 -118.8778 304° West 413 475 47,000  Level Salt Lake Center
09:37PM 45.9492 -119.0672 304° West 413 475 47,000  Level Seattle Center
09:38PM 46.0125 -119.2042 304° West 414 476 47,000  Level Seattle Center
09:39PM 46.0758 -119.3422 303° West 417 480 47,000  Level Seattle Center
09:40PM 46.1383 -119.4806 303° West 417 480 47,000  Level Seattle Center
09:41PM 46.2006 -119.6183 303° West 416 479 47,000  Level Seattle Center
09:42PM 46.2636 -119.7583 303° West 418 481 47,000  Level Seattle Center
09:43PM 46.3264 -119.8983 303° West 418 481 47,000 -360 Level Seattle Center
09:44PM 46.4008 -120.0628 303° West 413 475 46,300 -1,440 Descending Seattle Center
09:45PM 46.4600 -120.1967 302° West 403 464 44,100 -2,280 Descending Seattle Center
09:46PM 46.5189 -120.3322 303° West 400 460 41,700 -2,400 Descending Seattle Center
09:47PM 46.5781 -120.4669 305° West 400 460 39,300 -2,340 Descending Seattle Center
09:48PM 46.6389 -120.5931 305° West 392 451 37,000 -2,280 Descending Seattle Center
09:49PM 46.6944 -120.7069 305° West 358 412 34,700 -2,280 Descending Seattle Center
09:50PM 46.7483 -120.8197 304° West 344 396 32,400 -2,220 Descending Seattle Center
09:51PM 46.8025 -120.9383 305° West 350 403 30,200 -2,400 Descending Seattle Center
09:52PM 46.8706 -121.0825 304° West 360 414 27,600 -2,400 Descending Seattle Center
09:53PM 46.9261 -121.2014 305° West 360 414 25,400 -2,220 Descending Seattle Center
09:54PM 46.9781 -121.3122 304° West 340 391 23,200 -2,100 Descending Seattle Center
09:55PM 47.0289 -121.4214 304° West 333 383 21,200 -1,980 Descending Seattle Center
09:56PM 47.0794 -121.5300 305° West 330 380 19,200 -2,040 Descending Seattle Center
09:57PM 47.1242 -121.6231 303° West 321 369 17,700 -1,980 Descending Seattle Center
09:58PM 47.1722 -121.7300 304° West 316 364 15,800 -1,860 Descending Seattle Center
09:59PM 47.2253 -121.8475 305° West 308 354 13,800 -1,860 Descending Seattle Center
10:00PM 47.2750 -121.9539 303° West 307 353 11,900 -1,860 Descending Seattle Center
10:01PM 47.3186 -122.0539 305° West 283 326 10,100 -2,040 Descending Seattle Center
10:02PM 47.3578 -122.1369 300° West 274 315 8,000 -1,920 Descending Seattle Center
10:03PM 47.3958 -122.2339 299° West 268 308 6,500 -1,020 Descending Seattle Center
10:04PM 47.4311 -122.3292 319° Northwest 261 300 6,000 -780 Descending Seattle Center
10:05PM 47.4867 -122.4000 329° Northwest 249 287 5,000 -1,560 Descending Seattle Center
10:06PM 47.5414 -122.4486 359° North 231 266 2,900 -1,620 Descending Seattle Center
10:07PM 47.5928 -122.4500 69° East 204 235 2,000 -600 Descending Seattle Center
10:08PM 47.6097 -122.3847 139° Southeast 165 190 1,800 -540 Descending Seattle Center
10:09PM 47.5831 -122.3503 147° Southeast 132 152 1,000 -720 Descending Seattle Center
10:10PM 47.5567 -122.3253 147° Southeast 125 144 400 -600 Descending Seattle Center